Time;durP1;ratioP1;P1;durP2;ratioP2;P2;SDS_P1;SDS_P2;PMS_P1;PMS_P2;Temp;Humidity;BMP_temperature;BMP_pressure;BME280_temperature;BME280_humidity;BME280_pressure;Samples;Min_cycle;Max_cycle;Signal;HPM_P1;HPM_P2
2022/01/09 00:01:43;;;;;;;21.08;9.68;;;;;;;;;;4908307;28;108552;-67
2022/01/09 00:04:09;;;;;;;18.63;9.35;;;;;;;;;;4909080;28;107269;-68
2022/01/09 00:06:36;;;;;;;21.05;10.13;;;;;;;;;;4907281;28;107089;-67
2022/01/09 00:09:02;;;;;;;22.65;11.05;;;;;;;;;;4909347;28;107562;-67
2022/01/09 00:11:29;;;;;;;19.25;10.32;;;;;;;;;;4908814;28;106694;-67
2022/01/09 00:13:55;;;;;;;28.23;11.27;;;;;;;;;;4908343;28;106448;-67
2022/01/09 00:16:23;;;;;;;30.52;11.55;;;;;;;;;;4909581;28;107575;-67
2022/01/09 00:18:50;;;;;;;32.63;13.20;;;;;;;;;;4907120;28;106256;-67
2022/01/09 00:21:16;;;;;;;29.50;12.35;;;;;;;;;;4909463;28;110096;-67
2022/01/09 00:23:44;;;;;;;28.58;12.77;;;;;;;;;;4917392;28;107029;-67
2022/01/09 00:26:11;;;;;;;29.58;13.43;;;;;;;;;;4908769;28;107039;-67
2022/01/09 00:28:38;;;;;;;25.35;10.52;;;;;;;;;;4903396;28;107675;-68
2022/01/09 00:31:04;;;;;;;21.15;8.52;;;;;;;;;;4907965;28;108356;-67
2022/01/09 00:33:30;;;;;;;19.05;7.38;;;;;;;;;;4911237;28;107133;-67
2022/01/09 00:35:57;;;;;;;16.75;6.75;;;;;;;;;;4907674;28;106612;-67
2022/01/09 00:38:28;;;;;;;16.20;5.05;;;;;;;;;;4903902;28;107046;-67
2022/01/09 00:40:55;;;;;;;14.95;3.30;;;;;;;;;;4907360;28;107940;-67
2022/01/09 00:43:21;;;;;;;21.25;3.63;;;;;;;;;;4923941;28;107073;-67
2022/01/09 00:45:48;;;;;;;15.30;2.60;;;;;;;;;;4908252;28;106797;-67
2022/01/09 00:48:14;;;;;;;22.98;2.72;;;;;;;;;;4902663;28;106482;-68
2022/01/09 00:50:41;;;;;;;18.27;3.47;;;;;;;;;;4899246;28;106857;-68
2022/01/09 00:53:07;;;;;;;31.60;2.88;;;;;;;;;;4905639;28;106505;-69
2022/01/09 00:55:34;;;;;;;21.50;3.65;;;;;;;;;;4911717;28;107008;-67
2022/01/09 00:58:00;;;;;;;29.42;3.60;;;;;;;;;;4920111;28;106482;-67
2022/01/09 01:00:27;;;;;;;21.35;3.72;;;;;;;;;;4909053;28;106517;-68
2022/01/09 01:02:53;;;;;;;22.38;3.03;;;;;;;;;;4907476;28;106377;-67
2022/01/09 01:05:20;;;;;;;34.28;4.47;;;;;;;;;;4905162;28;106223;-67
2022/01/09 01:07:46;;;;;;;39.38;3.75;;;;;;;;;;4905547;28;107318;-67
2022/01/09 01:10:13;;;;;;;36.08;3.67;;;;;;;;;;4901694;28;105998;-67
2022/01/09 01:12:40;;;;;;;30.27;4.20;;;;;;;;;;4906232;28;106803;-68
2022/01/09 01:15:07;;;;;;;29.95;4.05;;;;;;;;;;4912756;28;107307;-68
2022/01/09 01:17:35;;;;;;;50.92;5.30;;;;;;;;;;4905308;28;106777;-68
2022/01/09 01:20:02;;;;;;;39.47;5.78;;;;;;;;;;4907538;28;107394;-67
2022/01/09 01:22:29;;;;;;;47.00;4.85;;;;;;;;;;4906556;28;105861;-68
2022/01/09 01:24:57;;;;;;;40.78;5.32;;;;;;;;;;4903635;28;105893;-68
2022/01/09 01:27:24;;;;;;;51.08;4.65;;;;;;;;;;4906850;28;106743;-69
2022/01/09 01:29:50;;;;;;;36.95;4.95;;;;;;;;;;4908326;28;107362;-68
2022/01/09 01:32:16;;;;;;;36.28;4.00;;;;;;;;;;4907794;28;107696;-69
2022/01/09 01:34:43;;;;;;;40.63;4.95;;;;;;;;;;4920510;28;109349;-68
2022/01/09 01:37:11;;;;;;;41.35;5.63;;;;;;;;;;4904585;28;106089;-68
2022/01/09 01:39:38;;;;;;;53.85;5.43;;;;;;;;;;4923044;28;109223;-69
2022/01/09 01:42:04;;;;;;;35.50;4.95;;;;;;;;;;4904506;28;105974;-68
2022/01/09 01:44:38;;;;;;;40.28;5.07;;;;;;;;;;4902874;28;106847;-68
2022/01/09 01:47:05;;;;;;;36.22;6.38;;;;;;;;;;4902991;28;106797;-68
2022/01/09 01:49:32;;;;;;;39.50;4.38;;;;;;;;;;4908083;28;107456;-68
2022/01/09 01:51:58;;;;;;;44.72;4.90;;;;;;;;;;4908919;28;107319;-67
2022/01/09 01:54:25;;;;;;;26.83;4.72;;;;;;;;;;4903991;28;107704;-69
2022/01/09 01:56:52;;;;;;;35.08;3.75;;;;;;;;;;4907253;28;106175;-68
2022/01/09 01:59:18;;;;;;;41.03;4.43;;;;;;;;;;4910488;28;106318;-68
2022/01/09 02:01:44;;;;;;;34.33;4.25;;;;;;;;;;4907138;28;106666;-68
2022/01/09 02:04:11;;;;;;;41.28;4.55;;;;;;;;;;4934678;22;107534;-68
2022/01/09 02:06:37;;;;;;;42.65;4.22;;;;;;;;;;4967117;28;106732;-69
2022/01/09 02:09:04;;;;;;;51.65;5.35;;;;;;;;;;4967305;28;106423;-67
2022/01/09 02:11:31;;;;;;;36.65;4.50;;;;;;;;;;4964419;28;106133;-68
2022/01/09 02:13:58;;;;;;;32.63;4.10;;;;;;;;;;4965886;28;107479;-68
2022/01/09 02:16:24;;;;;;;37.47;4.22;;;;;;;;;;4967917;28;105847;-68
2022/01/09 02:18:51;;;;;;;32.28;4.03;;;;;;;;;;4968951;28;106105;-68
2022/01/09 02:21:17;;;;;;;32.38;4.20;;;;;;;;;;4966950;28;106673;-68
2022/01/09 02:23:46;;;;;;;28.58;3.97;;;;;;;;;;4969589;28;106327;-68
2022/01/09 02:26:16;;;;;;;35.33;4.60;;;;;;;;;;4968933;28;108301;-68
2022/01/09 02:28:43;;;;;;;40.30;4.45;;;;;;;;;;4966127;28;106152;-68
2022/01/09 02:31:09;;;;;;;25.20;3.70;;;;;;;;;;4966746;28;107732;-68
2022/01/09 02:33:35;;;;;;;35.03;3.50;;;;;;;;;;4963933;28;107409;-68
2022/01/09 02:36:02;;;;;;;32.53;3.75;;;;;;;;;;4966748;28;105983;-69
2022/01/09 02:38:28;;;;;;;35.90;4.20;;;;;;;;;;4961886;28;107284;-68
2022/01/09 02:40:55;;;;;;;42.92;4.28;;;;;;;;;;4962351;28;107558;-68
2022/01/09 02:43:22;;;;;;;33.30;4.68;;;;;;;;;;4965771;28;106258;-68
2022/01/09 02:46:01;;;;;;;27.42;4.20;;;;;;;;;;4962457;28;106364;-68
2022/01/09 02:48:33;;;;;;;37.13;3.35;;;;;;;;;;4967554;28;106342;-68
2022/01/09 02:51:05;;;;;;;43.50;4.57;;;;;;;;;;4961958;28;106199;-68
2022/01/09 02:53:35;;;;;;;36.38;3.72;;;;;;;;;;4967722;28;107065;-68
2022/01/09 02:56:02;;;;;;;41.00;3.85;;;;;;;;;;4963476;28;106147;-68
2022/01/09 02:58:29;;;;;;;31.50;3.97;;;;;;;;;;4967210;28;106754;-68
2022/01/09 03:00:55;;;;;;;29.70;4.15;;;;;;;;;;4969785;28;107577;-68
2022/01/09 03:03:22;;;;;;;31.73;3.85;;;;;;;;;;4965095;28;106113;-68
2022/01/09 03:05:48;;;;;;;30.05;4.88;;;;;;;;;;4967645;28;106223;-68
2022/01/09 03:08:15;;;;;;;32.83;3.78;;;;;;;;;;4967438;28;106303;-68
2022/01/09 03:10:41;;;;;;;34.63;4.72;;;;;;;;;;4965662;28;107234;-68
2022/01/09 03:13:08;;;;;;;29.85;3.78;;;;;;;;;;4965619;28;107475;-69
2022/01/09 03:15:34;;;;;;;29.30;4.78;;;;;;;;;;4964432;28;106332;-68
2022/01/09 03:18:01;;;;;;;30.75;4.10;;;;;;;;;;4964491;28;107661;-68
2022/01/09 03:20:28;;;;;;;32.35;3.38;;;;;;;;;;4960188;28;107676;-68
2022/01/09 03:22:55;;;;;;;35.50;4.38;;;;;;;;;;4966104;28;106258;-68
2022/01/09 03:25:22;;;;;;;25.38;4.05;;;;;;;;;;4969679;28;106825;-68
2022/01/09 03:27:49;;;;;;;29.48;4.28;;;;;;;;;;4967384;28;105973;-68
2022/01/09 03:30:17;;;;;;;30.27;4.10;;;;;;;;;;4967795;28;106505;-68
2022/01/09 03:32:43;;;;;;;28.13;3.97;;;;;;;;;;4962998;28;106907;-68
2022/01/09 03:35:12;;;;;;;28.60;3.22;;;;;;;;;;4972392;28;107245;-68
2022/01/09 03:37:39;;;;;;;21.33;3.47;;;;;;;;;;4961812;28;106777;-68
2022/01/09 03:40:08;;;;;;;27.45;3.53;;;;;;;;;;4964205;28;106996;-68
2022/01/09 03:42:34;;;;;;;32.17;3.65;;;;;;;;;;4969654;28;106734;-68
2022/01/09 03:45:00;;;;;;;25.45;3.50;;;;;;;;;;4956227;28;107172;-68
2022/01/09 03:47:27;;;;;;;29.38;3.35;;;;;;;;;;4966013;28;106415;-68
2022/01/09 03:49:53;;;;;;;28.88;3.20;;;;;;;;;;4965717;28;106767;-68
2022/01/09 03:52:25;;;;;;;18.35;3.42;;;;;;;;;;4967812;28;107347;-68
2022/01/09 03:54:52;;;;;;;22.25;2.75;;;;;;;;;;4960390;28;107393;-68
2022/01/09 03:57:18;;;;;;;22.25;2.72;;;;;;;;;;4968927;28;106321;-68
2022/01/09 03:59:44;;;;;;;25.17;3.05;;;;;;;;;;4968292;28;106435;-69
2022/01/09 04:02:11;;;;;;;24.90;3.10;;;;;;;;;;4961742;28;105925;-69
2022/01/09 04:04:37;;;;;;;21.67;2.95;;;;;;;;;;4965217;28;106610;-69
2022/01/09 04:07:04;;;;;;;29.20;3.17;;;;;;;;;;4961219;28;106802;-68
2022/01/09 04:09:39;;;;;;;17.10;2.83;;;;;;;;;;4969633;28;106241;-68
2022/01/09 04:12:14;;;;;;;16.77;2.60;;;;;;;;;;4957426;28;107348;-68
2022/01/09 04:14:41;;;;;;;16.67;3.08;;;;;;;;;;4965411;28;106559;-68
2022/01/09 04:17:13;;;;;;;20.35;3.35;;;;;;;;;;4969112;28;107154;-69
2022/01/09 04:19:40;;;;;;;22.88;2.90;;;;;;;;;;4964671;28;106378;-68
2022/01/09 04:22:06;;;;;;;22.15;3.25;;;;;;;;;;4959289;28;106957;-68
2022/01/09 04:24:32;;;;;;;22.88;3.15;;;;;;;;;;4966872;28;106970;-68
2022/01/09 04:26:59;;;;;;;25.83;3.22;;;;;;;;;;4964720;28;106728;-68
2022/01/09 04:29:25;;;;;;;15.15;2.80;;;;;;;;;;4966656;28;106437;-68
2022/01/09 04:31:51;;;;;;;17.30;2.95;;;;;;;;;;4971153;28;107730;-68
2022/01/09 04:34:18;;;;;;;25.60;3.53;;;;;;;;;;4960636;28;105905;-68
2022/01/09 04:36:44;;;;;;;28.98;3.25;;;;;;;;;;4968292;28;107172;-68
2022/01/09 04:39:10;;;;;;;17.75;2.50;;;;;;;;;;4965079;28;108958;-69
2022/01/09 04:41:37;;;;;;;19.80;2.83;;;;;;;;;;4963789;28;106730;-68
2022/01/09 04:44:03;;;;;;;26.17;3.00;;;;;;;;;;4964924;28;107274;-68
2022/01/09 04:46:44;;;;;;;19.23;2.60;;;;;;;;;;4964687;28;106728;-68
2022/01/09 04:49:10;;;;;;;20.08;3.30;;;;;;;;;;4964976;28;106571;-68
2022/01/09 04:51:37;;;;;;;30.13;3.42;;;;;;;;;;4966666;28;107358;-68
2022/01/09 04:54:04;;;;;;;15.80;3.13;;;;;;;;;;4970958;28;106427;-69
2022/01/09 04:56:31;;;;;;;19.77;3.25;;;;;;;;;;4964060;28;107111;-68
2022/01/09 04:58:57;;;;;;;21.33;2.20;;;;;;;;;;4965419;28;106425;-68
2022/01/09 05:01:24;;;;;;;23.55;3.28;;;;;;;;;;4965935;28;106437;-68
2022/01/09 05:03:50;;;;;;;29.95;3.15;;;;;;;;;;4964283;28;108434;-68
2022/01/09 05:06:18;;;;;;;22.55;3.00;;;;;;;;;;4963604;28;106749;-68
2022/01/09 05:08:44;;;;;;;18.85;3.17;;;;;;;;;;4961304;28;106568;-68
2022/01/09 05:11:10;;;;;;;24.20;2.70;;;;;;;;;;4954738;28;106843;-69
2022/01/09 05:13:37;;;;;;;23.08;2.72;;;;;;;;;;4955062;28;108299;-68
2022/01/09 05:16:04;;;;;;;16.63;2.50;;;;;;;;;;4961559;28;106004;-68
2022/01/09 05:18:30;;;;;;;22.60;3.78;;;;;;;;;;4965710;28;107455;-68
2022/01/09 05:20:56;;;;;;;20.65;2.08;;;;;;;;;;4958880;28;106243;-69
2022/01/09 05:23:23;;;;;;;30.90;3.55;;;;;;;;;;4953731;28;106642;-69
2022/01/09 05:25:49;;;;;;;23.60;2.97;;;;;;;;;;4952355;28;107531;-68
2022/01/09 05:28:15;;;;;;;25.35;3.08;;;;;;;;;;4962877;28;106041;-68
2022/01/09 05:30:42;;;;;;;22.63;3.08;;;;;;;;;;4967136;28;106502;-68
2022/01/09 05:33:08;;;;;;;18.45;2.88;;;;;;;;;;4963363;28;107609;-68
2022/01/09 05:35:35;;;;;;;15.20;2.70;;;;;;;;;;4957852;28;106412;-68
2022/01/09 05:38:01;;;;;;;17.13;3.30;;;;;;;;;;4955572;28;109864;-68
2022/01/09 05:40:28;;;;;;;18.50;2.47;;;;;;;;;;4962236;28;106993;-68
2022/01/09 05:42:54;;;;;;;25.15;2.78;;;;;;;;;;4960819;28;106249;-68
2022/01/09 05:45:21;;;;;;;20.00;3.70;;;;;;;;;;4967736;28;108202;-68
2022/01/09 05:47:47;;;;;;;18.48;2.53;;;;;;;;;;4967237;28;106261;-68
2022/01/09 05:50:14;;;;;;;28.20;4.93;;;;;;;;;;4961891;28;107074;-68
2022/01/09 05:52:40;;;;;;;21.35;2.75;;;;;;;;;;4959728;28;107961;-68
2022/01/09 05:55:07;;;;;;;22.35;3.47;;;;;;;;;;4962981;28;108606;-68
2022/01/09 05:57:34;;;;;;;13.68;2.28;;;;;;;;;;4970650;28;106911;-68
2022/01/09 06:00:00;;;;;;;14.38;2.30;;;;;;;;;;4969177;28;106542;-68
2022/01/09 06:02:27;;;;;;;21.95;2.20;;;;;;;;;;4968186;28;106337;-68
2022/01/09 06:04:53;;;;;;;17.05;2.13;;;;;;;;;;4969757;28;106479;-68
2022/01/09 06:07:19;;;;;;;12.63;2.35;;;;;;;;;;4970640;28;106022;-68
2022/01/09 06:09:46;;;;;;;16.48;2.58;;;;;;;;;;4968867;28;107508;-68
2022/01/09 06:12:12;;;;;;;11.77;2.10;;;;;;;;;;4969626;28;106479;-68
2022/01/09 06:14:39;;;;;;;24.77;2.45;;;;;;;;;;4975556;28;107257;-68
2022/01/09 06:17:06;;;;;;;27.80;2.50;;;;;;;;;;4971050;28;107029;-68
2022/01/09 06:19:32;;;;;;;29.15;2.83;;;;;;;;;;4965992;28;108359;-68
2022/01/09 06:21:58;;;;;;;14.98;2.00;;;;;;;;;;4965266;28;106972;-68
2022/01/09 06:24:25;;;;;;;24.52;2.75;;;;;;;;;;4968569;28;106376;-68
2022/01/09 06:26:51;;;;;;;18.83;2.25;;;;;;;;;;4968011;28;106022;-68
2022/01/09 06:29:19;;;;;;;13.70;1.90;;;;;;;;;;4966467;28;106588;-68
2022/01/09 06:31:49;;;;;;;16.63;2.60;;;;;;;;;;4963249;28;107287;-68
2022/01/09 06:34:16;;;;;;;19.23;2.47;;;;;;;;;;4964893;28;106027;-68
2022/01/09 06:36:42;;;;;;;21.42;2.55;;;;;;;;;;4970205;28;107518;-68
2022/01/09 06:39:08;;;;;;;24.70;2.53;;;;;;;;;;4968152;28;107691;-68
2022/01/09 06:41:35;;;;;;;13.80;2.15;;;;;;;;;;4974103;28;106338;-68
2022/01/09 06:44:01;;;;;;;18.20;2.78;;;;;;;;;;4968586;28;108236;-68
2022/01/09 06:46:28;;;;;;;16.63;3.08;;;;;;;;;;4968075;28;106429;-68
2022/01/09 06:48:54;;;;;;;13.40;2.08;;;;;;;;;;4967940;28;106181;-68
2022/01/09 06:51:20;;;;;;;15.18;1.80;;;;;;;;;;4967164;28;108582;-68
2022/01/09 06:53:47;;;;;;;16.80;2.42;;;;;;;;;;4968435;28;106252;-68
2022/01/09 06:56:13;;;;;;;20.35;2.53;;;;;;;;;;4968122;28;108945;-68
2022/01/09 06:58:40;;;;;;;13.02;1.73;;;;;;;;;;4966101;28;109404;-69
2022/01/09 07:01:07;;;;;;;17.88;2.22;;;;;;;;;;4967210;28;106209;-68
2022/01/09 07:03:33;;;;;;;17.02;2.10;;;;;;;;;;4971860;28;106871;-68
2022/01/09 07:06:00;;;;;;;14.43;2.08;;;;;;;;;;4969174;28;106009;-68
2022/01/09 07:08:28;;;;;;;17.92;2.83;;;;;;;;;;4969051;28;106166;-68
2022/01/09 07:10:55;;;;;;;17.73;2.47;;;;;;;;;;4960396;28;108764;-68
2022/01/09 07:13:21;;;;;;;10.05;1.92;;;;;;;;;;4967093;28;107170;-68
2022/01/09 07:15:47;;;;;;;19.55;2.92;;;;;;;;;;4963540;28;106821;-68
2022/01/09 07:18:14;;;;;;;20.40;3.17;;;;;;;;;;4961798;28;107297;-68
2022/01/09 07:20:41;;;;;;;16.15;2.08;;;;;;;;;;4960792;28;105607;-68
2022/01/09 07:23:07;;;;;;;13.38;2.10;;;;;;;;;;4967595;28;108687;-68
2022/01/09 07:25:33;;;;;;;9.15;1.85;;;;;;;;;;4962746;28;107087;-67
2022/01/09 07:28:02;;;;;;;19.17;2.42;;;;;;;;;;4969250;28;106626;-67
2022/01/09 07:30:28;;;;;;;11.85;2.00;;;;;;;;;;4963388;28;106212;-68
2022/01/09 07:32:55;;;;;;;12.82;2.53;;;;;;;;;;4959665;28;106900;-68
2022/01/09 07:35:23;;;;;;;12.55;2.13;;;;;;;;;;4965416;28;107438;-68
2022/01/09 07:37:49;;;;;;;19.27;2.85;;;;;;;;;;4963614;28;107121;-68
2022/01/09 07:40:16;;;;;;;13.80;2.20;;;;;;;;;;4958531;28;106274;-69
2022/01/09 07:42:45;;;;;;;15.55;2.25;;;;;;;;;;4966623;28;107128;-68
2022/01/09 07:45:12;;;;;;;16.45;2.40;;;;;;;;;;4967926;28;108052;-68
2022/01/09 07:47:39;;;;;;;17.38;2.70;;;;;;;;;;4965920;28;107105;-69
2022/01/09 07:50:06;;;;;;;17.70;2.25;;;;;;;;;;4963155;28;106904;-69
2022/01/09 07:52:36;;;;;;;11.65;2.25;;;;;;;;;;4968307;28;106388;-69
2022/01/09 07:55:04;;;;;;;14.05;2.30;;;;;;;;;;4963020;28;107020;-67
2022/01/09 07:57:30;;;;;;;18.65;2.40;;;;;;;;;;4960859;28;109123;-68
2022/01/09 07:59:58;;;;;;;10.75;2.20;;;;;;;;;;4967930;28;108337;-68
2022/01/09 08:02:24;;;;;;;13.40;2.15;;;;;;;;;;4966273;28;105968;-69
2022/01/09 08:04:50;;;;;;;15.63;2.53;;;;;;;;;;4966018;28;108147;-68
2022/01/09 08:07:17;;;;;;;11.57;2.25;;;;;;;;;;4983473;28;107113;-69
2022/01/09 08:09:45;;;;;;;14.05;2.25;;;;;;;;;;4966631;28;107758;-68
2022/01/09 08:12:14;;;;;;;16.40;2.80;;;;;;;;;;4968962;28;106554;-68
2022/01/09 08:14:40;;;;;;;10.35;1.70;;;;;;;;;;4964491;28;106605;-68
2022/01/09 08:17:07;;;;;;;13.48;2.08;;;;;;;;;;4965398;28;106688;-68
2022/01/09 08:19:35;;;;;;;17.30;2.38;;;;;;;;;;4965346;28;105535;-68
2022/01/09 08:22:02;;;;;;;10.02;2.00;;;;;;;;;;4963198;28;106648;-68
2022/01/09 08:24:28;;;;;;;15.52;2.75;;;;;;;;;;4960523;28;106559;-68
2022/01/09 08:26:55;;;;;;;12.85;2.53;;;;;;;;;;4968241;28;106608;-69
2022/01/09 08:29:21;;;;;;;17.80;2.88;;;;;;;;;;4971745;28;106542;-68
2022/01/09 08:31:48;;;;;;;14.80;2.47;;;;;;;;;;4961860;28;106080;-68
2022/01/09 08:34:14;;;;;;;10.40;2.00;;;;;;;;;;4967387;28;106463;-68
2022/01/09 08:36:41;;;;;;;19.80;2.90;;;;;;;;;;4965003;28;108127;-68
2022/01/09 08:39:07;;;;;;;14.63;2.60;;;;;;;;;;4956594;28;106945;-68
2022/01/09 08:41:34;;;;;;;9.85;2.13;;;;;;;;;;4966337;28;107006;-67
2022/01/09 08:44:01;;;;;;;17.95;3.75;;;;;;;;;;4967350;28;107300;-67
2022/01/09 08:46:28;;;;;;;8.95;1.90;;;;;;;;;;4959619;28;107400;-68
2022/01/09 08:48:54;;;;;;;14.50;2.75;;;;;;;;;;4956308;28;107356;-67
2022/01/09 08:51:21;;;;;;;17.15;2.05;;;;;;;;;;4971897;28;106320;-67
2022/01/09 08:53:50;;;;;;;11.05;2.03;;;;;;;;;;4965133;28;109809;-67
2022/01/09 08:56:21;;;;;;;17.58;2.45;;;;;;;;;;4965882;28;107671;-68
2022/01/09 08:58:47;;;;;;;14.30;2.20;;;;;;;;;;4967512;28;105921;-67
2022/01/09 09:01:33;;;;;;;14.52;2.03;;;;;;;;;;4961994;28;107306;-68
2022/01/09 09:04:00;;;;;;;11.57;1.80;;;;;;;;;;4964830;28;107878;-68
2022/01/09 09:06:26;;;;;;;10.70;2.78;;;;;;;;;;4964438;28;107696;-67
2022/01/09 09:08:53;;;;;;;16.38;2.08;;;;;;;;;;4964870;28;107014;-67
2022/01/09 09:11:19;;;;;;;15.20;2.47;;;;;;;;;;4963170;28;107679;-68
2022/01/09 09:13:46;;;;;;;15.35;3.22;;;;;;;;;;4968624;28;106386;-68
2022/01/09 09:16:12;;;;;;;12.85;2.85;;;;;;;;;;4956333;28;107705;-68
2022/01/09 09:18:39;;;;;;;15.32;3.58;;;;;;;;;;4968519;28;106941;-68
2022/01/09 09:21:05;;;;;;;16.67;2.67;;;;;;;;;;4966031;28;106688;-68
2022/01/09 09:23:32;;;;;;;13.98;2.58;;;;;;;;;;4968561;28;106123;-68
2022/01/09 09:25:58;;;;;;;14.23;2.20;;;;;;;;;;4964583;28;106979;-68
2022/01/09 09:28:24;;;;;;;11.93;2.22;;;;;;;;;;4965793;28;107203;-68
2022/01/09 09:30:51;;;;;;;11.25;2.50;;;;;;;;;;4969779;28;108617;-67
2022/01/09 09:33:17;;;;;;;12.82;1.73;;;;;;;;;;4969159;28;106704;-68
2022/01/09 09:35:44;;;;;;;14.07;2.30;;;;;;;;;;4965873;28;106505;-68
2022/01/09 09:38:10;;;;;;;11.93;2.55;;;;;;;;;;4967458;28;106147;-68
2022/01/09 09:40:36;;;;;;;10.20;1.85;;;;;;;;;;4967768;28;107178;-68
2022/01/09 09:43:03;;;;;;;19.60;2.40;;;;;;;;;;4969078;28;106867;-68
2022/01/09 09:45:29;;;;;;;11.45;2.60;;;;;;;;;;4967226;28;109659;-68
2022/01/09 09:47:56;;;;;;;10.57;2.40;;;;;;;;;;4967663;28;106034;-68
2022/01/09 09:50:22;;;;;;;16.45;2.97;;;;;;;;;;4968215;28;108047;-68
2022/01/09 09:52:50;;;;;;;14.15;2.45;;;;;;;;;;4968014;28;106029;-68
2022/01/09 09:55:17;;;;;;;19.60;2.65;;;;;;;;;;4969419;28;106138;-68
2022/01/09 09:57:44;;;;;;;17.63;2.72;;;;;;;;;;4969341;28;106064;-68
2022/01/09 10:00:11;;;;;;;15.27;2.72;;;;;;;;;;4966137;28;106835;-68
2022/01/09 10:02:41;;;;;;;15.73;2.65;;;;;;;;;;4958207;28;106524;-71
2022/01/09 10:05:08;;;;;;;;;;;;;;;;;;4970398;28;106672;-68
2022/01/09 10:07:34;;;;;;;14.38;2.78;;;;;;;;;;4962115;28;136361;-68
2022/01/09 10:10:04;;;;;;;23.73;3.35;;;;;;;;;;4962921;28;108469;-68
2022/01/09 10:12:32;;;;;;;13.45;2.70;;;;;;;;;;4970311;28;106857;-68
2022/01/09 10:14:59;;;;;;;20.63;2.60;;;;;;;;;;4967196;28;106019;-68
2022/01/09 10:17:26;;;;;;;14.02;2.65;;;;;;;;;;4963942;28;109423;-68
2022/01/09 10:19:56;;;;;;;17.70;2.97;;;;;;;;;;4961784;28;106957;-69
2022/01/09 10:22:41;;;;;;;16.00;2.40;;;;;;;;;;4967000;28;107215;-67
2022/01/09 10:25:18;;;;;;;18.60;2.70;;;;;;;;;;4965436;28;106402;-68
2022/01/09 10:27:45;;;;;;;17.35;2.30;;;;;;;;;;4962274;28;106303;-67
2022/01/09 10:30:11;;;;;;;14.57;2.13;;;;;;;;;;4966032;28;106729;-67
2022/01/09 10:32:38;;;;;;;16.10;3.00;;;;;;;;;;4965366;28;106663;-67
2022/01/09 10:35:18;;;;;;;22.83;2.40;;;;;;;;;;4966788;28;106913;-67
2022/01/09 10:37:46;;;;;;;17.80;2.17;;;;;;;;;;4979625;28;109527;-67
2022/01/09 10:40:21;;;;;;;21.05;2.67;;;;;;;;;;4968065;28;106654;-67
2022/01/09 10:43:04;;;;;;;13.43;2.30;;;;;;;;;;4964502;28;106461;-68
2022/01/09 10:45:31;;;;;;;19.55;2.45;;;;;;;;;;4963437;28;106264;-68
2022/01/09 10:48:06;;;;;;;18.55;2.10;;;;;;;;;;4967634;28;107535;-68
2022/01/09 10:50:34;;;;;;;16.15;2.67;;;;;;;;;;4968158;28;107662;-68
2022/01/09 10:53:15;;;;;;;16.45;1.90;;;;;;;;;;4963353;28;106934;-68
2022/01/09 10:55:42;;;;;;;15.35;2.60;;;;;;;;;;4965965;28;107932;-68
2022/01/09 10:58:15;;;;;;;15.90;2.30;;;;;;;;;;4961479;28;107845;-68
2022/01/09 11:00:42;;;;;;;20.20;2.78;;;;;;;;;;4965292;28;106856;-68
2022/01/09 11:03:08;;;;;;;14.75;2.53;;;;;;;;;;4971434;28;106683;-68
2022/01/09 11:05:35;;;;;;;18.98;2.90;;;;;;;;;;4966439;28;107039;-68
2022/01/09 11:08:02;;;;;;;9.68;2.20;;;;;;;;;;4967764;28;108063;-69
2022/01/09 11:10:29;;;;;;;14.10;2.38;;;;;;;;;;4965866;28;107466;-68
2022/01/09 11:12:59;;;;;;;12.13;2.72;;;;;;;;;;4961041;28;107515;-68
2022/01/09 11:15:29;;;;;;;13.13;2.13;;;;;;;;;;4959966;28;110331;-67
2022/01/09 11:17:58;;;;;;;11.85;1.88;;;;;;;;;;4960481;28;107631;-71
2022/01/09 11:20:24;;;;;;;10.15;1.70;;;;;;;;;;4965139;28;107321;-68
2022/01/09 11:22:53;;;;;;;10.10;1.65;;;;;;;;;;4975074;28;106859;-67
2022/01/09 11:25:28;;;;;;;12.27;2.03;;;;;;;;;;4970947;28;106765;-67
2022/01/09 11:28:07;;;;;;;8.45;1.45;;;;;;;;;;4970141;28;107692;-66
2022/01/09 11:30:53;;;;;;;11.75;1.77;;;;;;;;;;4958700;28;106581;-67
2022/01/09 11:33:19;;;;;;;15.73;1.80;;;;;;;;;;4967605;28;106209;-66
2022/01/09 11:35:48;;;;;;;9.10;1.40;;;;;;;;;;4964800;28;108097;-67
2022/01/09 11:38:25;;;;;;;12.20;1.92;;;;;;;;;;4962560;28;107604;-67
2022/01/09 11:40:51;;;;;;;9.05;1.50;;;;;;;;;;4968607;28;108011;-66
2022/01/09 11:43:20;;;;;;;9.88;1.60;;;;;;;;;;4967217;28;106585;-67
2022/01/09 11:45:46;;;;;;;10.68;1.50;;;;;;;;;;4971179;28;107234;-67
2022/01/09 11:48:14;;;;;;;6.40;1.70;;;;;;;;;;4967581;28;106394;-67
2022/01/09 11:51:04;;;;;;;10.63;1.63;;;;;;;;;;4963427;28;107575;-67
2022/01/09 11:53:48;;;;;;;13.45;1.80;;;;;;;;;;4966042;28;106433;-67
2022/01/09 11:56:35;;;;;;;11.07;1.52;;;;;;;;;;4958727;28;106934;-66
2022/01/09 11:59:18;;;;;;;11.48;1.80;;;;;;;;;;4953277;28;108833;-66
2022/01/09 12:01:52;;;;;;;7.30;1.67;;;;;;;;;;4962498;28;106378;-65
2022/01/09 12:04:31;;;;;;;10.32;2.17;;;;;;;;;;4961747;28;108634;-65
2022/01/09 12:06:58;;;;;;;13.65;2.17;;;;;;;;;;4956055;28;108083;-65
2022/01/09 12:09:35;;;;;;;16.13;2.40;;;;;;;;;;4965072;28;106361;-66
2022/01/09 12:12:11;;;;;;;16.50;2.25;;;;;;;;;;4958984;28;106749;-65
2022/01/09 12:17:41;;;;;;;17.13;2.40;;;;;;;;;;4957637;28;107680;-65
2022/01/09 12:20:13;;;;;;;14.48;2.28;;;;;;;;;;4955456;28;106391;-67
2022/01/09 12:22:44;;;;;;;14.98;2.10;;;;;;;;;;4959160;28;106606;-66
2022/01/09 12:25:30;;;;;;;14.35;2.53;;;;;;;;;;4965678;28;106637;-66
2022/01/09 12:28:08;;;;;;;11.68;2.47;;;;;;;;;;4956151;28;108586;-65
2022/01/09 12:30:41;;;;;;;9.63;2.20;;;;;;;;;;4982605;28;107601;-65
2022/01/09 12:33:11;;;;;;;13.80;1.88;;;;;;;;;;4968469;28;106518;-65
2022/01/09 12:35:39;;;;;;;9.48;1.80;;;;;;;;;;4959341;28;106404;-66
2022/01/09 12:38:06;;;;;;;16.40;2.78;;;;;;;;;;4967630;28;106987;-65
2022/01/09 12:40:35;;;;;;;12.98;2.63;;;;;;;;;;4962322;28;107761;-65
2022/01/09 12:43:02;;;;;;;14.20;2.38;;;;;;;;;;4957518;28;107153;-66
2022/01/09 12:45:29;;;;;;;18.65;2.47;;;;;;;;;;4956814;28;107180;-66
2022/01/09 12:47:56;;;;;;;12.77;2.10;;;;;;;;;;4960677;28;107292;-66
2022/01/09 12:50:26;;;;;;;13.30;2.30;;;;;;;;;;4948855;28;106809;-67
2022/01/09 12:53:10;;;;;;;17.58;2.53;;;;;;;;;;4964608;28;107256;-66
2022/01/09 12:55:51;;;;;;;9.50;1.80;;;;;;;;;;4971849;28;106839;-66
2022/01/09 12:58:23;;;;;;;14.15;2.50;;;;;;;;;;4971326;28;106171;-66
2022/01/09 13:00:49;;;;;;;12.05;2.05;;;;;;;;;;4959634;28;106878;-65
2022/01/09 13:03:20;;;;;;;12.50;2.03;;;;;;;;;;4966792;28;106267;-65
2022/01/09 13:05:57;;;;;;;16.85;2.00;;;;;;;;;;4947409;28;109009;-65
2022/01/09 13:08:23;;;;;;;15.05;2.55;;;;;;;;;;4963600;28;106601;-66
2022/01/09 13:11:07;;;;;;;12.73;2.03;;;;;;;;;;4962191;28;106300;-67
2022/01/09 13:13:34;;;;;;;12.55;2.20;;;;;;;;;;4966871;28;106281;-67
2022/01/09 13:16:12;;;;;;;11.10;1.85;;;;;;;;;;4958954;28;106686;-65
2022/01/09 13:18:49;;;;;;;13.20;1.70;;;;;;;;;;4962959;28;106576;-69
2022/01/09 13:21:19;;;;;;;9.27;1.60;;;;;;;;;;4960690;28;106472;-69
2022/01/09 13:24:05;;;;;;;11.68;1.88;;;;;;;;;;4964996;28;107040;-68
2022/01/09 13:26:34;;;;;;;11.05;1.50;;;;;;;;;;4964780;28;107999;-68
2022/01/09 13:29:01;;;;;;;11.65;1.85;;;;;;;;;;4962162;28;106336;-68
2022/01/09 13:31:38;;;;;;;9.48;1.63;;;;;;;;;;4962795;28;109765;-68
2022/01/09 13:34:06;;;;;;;14.13;1.90;;;;;;;;;;4964827;28;108194;-67
2022/01/09 13:36:34;;;;;;;12.15;1.80;;;;;;;;;;4964975;28;106573;-68
2022/01/09 13:39:04;;;;;;;9.77;1.52;;;;;;;;;;4964550;28;106332;-67
2022/01/09 13:41:30;;;;;;;;;;;;;;;;;;4959801;28;110765;-68
2022/01/09 13:43:57;;;;;;;9.13;2.22;;;;;;;;;;4966091;28;125250;-68
2022/01/09 13:46:23;;;;;;;12.43;2.10;;;;;;;;;;4966676;28;106733;-69
2022/01/09 13:48:50;;;;;;;14.95;2.25;;;;;;;;;;4957083;28;106341;-68
2022/01/09 13:51:17;;;;;;;8.73;1.60;;;;;;;;;;4966096;28;105880;-68
2022/01/09 13:54:04;;;;;;;14.45;2.15;;;;;;;;;;4961338;28;107916;-67
2022/01/09 13:56:30;;;;;;;16.02;1.90;;;;;;;;;;4963507;28;107812;-67
2022/01/09 13:58:57;;;;;;;18.42;1.98;;;;;;;;;;4965037;28;106452;-67
2022/01/09 14:01:38;;;;;;;15.23;2.42;;;;;;;;;;4971178;28;106406;-69
2022/01/09 14:04:11;;;;;;;16.35;1.80;;;;;;;;;;4964932;28;107346;-67
2022/01/09 14:06:38;;;;;;;20.15;2.30;;;;;;;;;;4965829;28;106922;-68
2022/01/09 14:09:05;;;;;;;15.50;2.55;;;;;;;;;;4968266;28;108029;-67
2022/01/09 14:11:33;;;;;;;15.07;2.13;;;;;;;;;;4965855;28;106349;-67
2022/01/09 14:14:00;;;;;;;17.25;2.63;;;;;;;;;;4968804;28;106554;-67
2022/01/09 14:16:32;;;;;;;10.75;3.17;;;;;;;;;;4961599;28;106827;-67
2022/01/09 14:19:01;;;;;;;12.63;1.83;;;;;;;;;;4966822;28;108018;-67
2022/01/09 14:21:28;;;;;;;24.27;2.67;;;;;;;;;;4966785;28;107990;-68
2022/01/09 14:24:03;;;;;;;18.13;2.45;;;;;;;;;;4968574;28;107776;-67
2022/01/09 14:26:29;;;;;;;11.90;2.15;;;;;;;;;;4965466;28;108692;-68
2022/01/09 14:28:55;;;;;;;14.38;2.28;;;;;;;;;;4970248;28;107535;-68